Time;durP1;ratioP1;P1;durP2;ratioP2;P2;SDS_P1;SDS_P2;PMS_P1;PMS_P2;Temp;Humidity;BMP_temperature;BMP_pressure;BME280_temperature;BME280_humidity;BME280_pressure;Samples;Min_cycle;Max_cycle;Signal;HPM_P1;HPM_P2
2022/12/10 00:00:21;;;;;;;111.93;31.05;;;;;;;-3.50;100.00;100373.13;5087505;28;20459;-71
2022/12/10 00:02:46;;;;;;;;;;;;;;;-3.46;100.00;100379.88;5067686;28;20585;-69
2022/12/10 00:05:11;;;;;;;114.43;30.37;;;;;;;-3.43;100.00;100377.09;5023279;28;19916;-72
2022/12/10 00:07:37;;;;;;;97.95;27.80;;;;;;;-3.49;100.00;100372.22;5053256;28;20059;-71
2022/12/10 00:10:02;;;;;;;97.30;30.42;;;;;;;-3.50;100.00;100367.91;5045045;28;20121;-70
2022/12/10 00:12:27;;;;;;;119.70;33.22;;;;;;;-3.69;100.00;100364.59;5047460;28;20128;-68
2022/12/10 00:14:53;;;;;;;;;;;;;;;-3.58;100.00;100377.91;5035717;28;20035;-70
2022/12/10 00:17:18;;;;;;;101.23;29.03;;;;;;;-3.55;100.00;100367.31;5051259;28;20542;-72
2022/12/10 00:19:43;;;;;;;115.78;34.38;;;;;;;-3.57;100.00;100365.72;5053571;28;20103;-72
2022/12/10 00:22:09;;;;;;;111.25;29.48;;;;;;;-3.60;100.00;100369.31;5014598;28;20128;-72
2022/12/10 00:24:34;;;;;;;90.63;27.08;;;;;;;-3.61;100.00;100373.72;5038357;28;20052;-73
2022/12/10 00:27:00;;;;;;;99.00;28.02;;;;;;;-3.58;100.00;100369.22;5028576;28;20038;-71
2022/12/10 00:29:25;;;;;;;97.22;26.98;;;;;;;-3.58;100.00;100375.31;5021106;28;20112;-72
2022/12/10 00:31:50;;;;;;;101.28;30.17;;;;;;;-3.63;100.00;100372.94;5042363;28;20049;-72
2022/12/10 00:34:16;;;;;;;98.20;27.08;;;;;;;-3.58;100.00;100375.31;5056585;28;20036;-70
2022/12/10 00:36:44;;;;;;;112.97;30.38;;;;;;;-3.55;100.00;100376.91;5060246;28;20087;-72
2022/12/10 00:39:12;;;;;;;98.07;28.15;;;;;;;-3.63;100.00;100379.91;5058150;28;20104;-70
2022/12/10 00:41:38;;;;;;;80.10;24.83;;;;;;;-3.69;100.00;100369.81;5066871;28;20037;-68
2022/12/10 00:44:03;;;;;;;83.95;26.48;;;;;;;-3.52;100.00;100380.19;5027728;28;20025;-71
2022/12/10 00:46:29;;;;;;;71.75;24.30;;;;;;;-3.50;100.00;100385.34;5016955;28;20049;-71
2022/12/10 00:48:54;;;;;;;;;;;;;;;-3.63;100.00;100374.69;5037841;28;20457;-72
2022/12/10 00:51:21;;;;;;;;;;;;;;;-3.55;100.00;100372.53;5035112;28;19920;-70
2022/12/10 00:53:47;;;;;;;;;;;;;;;-3.52;100.00;100371.50;5039934;28;20386;-71
2022/12/10 00:56:14;;;;;;;88.68;23.42;;;;;;;-3.57;100.00;100376.97;5047418;28;20711;-69
2022/12/10 00:58:40;;;;;;;90.65;23.48;;;;;;;-3.52;100.00;100376.72;5039017;28;20048;-72
2022/12/10 01:01:26;;;;;;;80.35;27.58;;;;;;;-3.55;100.00;100364.69;5056843;28;20037;-72
2022/12/10 01:03:54;;;;;;;62.10;22.88;;;;;;;-3.56;100.00;100370.81;5040763;28;20097;-72
2022/12/10 01:06:28;;;;;;;57.42;20.35;;;;;;;-3.43;100.00;100366.63;5057300;28;20048;-72
2022/12/10 01:08:56;;;;;;;67.40;22.25;;;;;;;-3.41;100.00;100375.22;5034116;28;20488;-72
2022/12/10 01:11:26;;;;;;;61.85;20.30;;;;;;;-3.43;100.00;100371.88;5012291;28;20036;-72
2022/12/10 01:13:52;;;;;;;66.82;20.52;;;;;;;-3.37;100.00;100370.72;5047314;28;20038;-72
2022/12/10 01:16:19;;;;;;;80.70;23.77;;;;;;;-3.43;100.00;100382.31;5045234;28;20071;-70
2022/12/10 01:18:45;;;;;;;75.68;25.35;;;;;;;-3.41;100.00;100362.19;5016947;28;20056;-70
2022/12/10 01:21:14;;;;;;;72.75;24.63;;;;;;;-3.38;100.00;100378.59;5060280;28;20024;-72
2022/12/10 01:23:41;;;;;;;88.72;26.27;;;;;;;-3.42;100.00;100368.34;5034277;28;20029;-70
2022/12/10 01:26:10;;;;;;;69.68;22.75;;;;;;;-3.41;100.00;100375.22;5036141;28;20033;-71
2022/12/10 01:28:38;;;;;;;64.88;21.17;;;;;;;-3.26;100.00;100383.16;5055311;28;20044;-72
2022/12/10 01:31:12;;;;;;;63.08;21.73;;;;;;;-3.35;100.00;100378.44;5012067;28;20064;-72
2022/12/10 01:33:39;;;;;;;62.97;21.23;;;;;;;-3.31;100.00;100379.97;5030995;28;20063;-72
2022/12/10 01:36:08;;;;;;;56.45;19.05;;;;;;;-3.35;100.00;100379.28;5045901;28;20025;-72
2022/12/10 01:38:35;;;;;;;62.40;22.30;;;;;;;-3.42;100.00;100368.34;5039785;28;20025;-72
2022/12/10 01:41:03;;;;;;;64.38;24.63;;;;;;;-3.30;100.00;100365.97;5050118;28;20483;-68
2022/12/10 01:43:56;;;;;;;59.38;20.70;;;;;;;-3.28;100.00;100366.72;5059689;28;20028;-72
2022/12/10 01:46:24;;;;;;;54.25;21.42;;;;;;;-3.25;100.00;100369.19;5044989;28;20037;-72
2022/12/10 01:48:50;;;;;;;51.67;19.30;;;;;;;-3.42;100.00;100370.94;5040522;28;20051;-72
2022/12/10 01:51:17;;;;;;;53.30;20.40;;;;;;;-3.37;100.00;100369.84;5035309;28;20083;-72
2022/12/10 01:53:42;;;;;;;52.15;18.42;;;;;;;-3.32;100.00;100379.13;5015683;28;20018;-69
2022/12/10 01:56:09;;;;;;;;;;;;;;;-3.38;100.00;100379.44;5028724;28;20048;-69
2022/12/10 01:58:35;;;;;;;58.50;20.83;;;;;;;-3.31;100.00;100374.75;5036810;28;19966;-72
2022/12/10 02:01:16;;;;;;;57.88;18.83;;;;;;;-3.37;100.00;100375.06;5043357;28;20111;-70
2022/12/10 02:03:56;;;;;;;57.80;21.40;;;;;;;-3.27;100.00;100376.28;5032062;28;20041;-73
2022/12/10 02:06:38;;;;;;;67.85;22.13;;;;;;;-3.16;100.00;100378.28;5049414;28;20167;-72
2022/12/10 02:09:25;;;;;;;63.17;20.40;;;;;;;-3.15;100.00;100380.81;5042272;28;20394;-68
2022/12/10 02:12:24;;;;;;;53.20;18.90;;;;;;;-2.98;100.00;100387.72;5030657;28;20040;-71
2022/12/10 02:14:55;;;;;;;51.58;18.33;;;;;;;-2.93;100.00;100382.25;5052104;28;20025;-72
2022/12/10 02:17:34;;;;;;;45.15;17.65;;;;;;;-3.01;100.00;100382.69;5028357;28;20083;-72
2022/12/10 02:20:18;;;;;;;53.85;20.23;;;;;;;-3.03;100.00;100380.13;5039202;28;20818;-72
2022/12/10 02:23:05;;;;;;;48.33;18.95;;;;;;;-3.13;100.00;100384.19;5048188;28;20127;-72
2022/12/10 02:25:39;;;;;;;48.53;19.42;;;;;;;-3.21;100.00;100370.69;5052028;28;20083;-71
2022/12/10 02:28:36;;;;;;;50.97;19.55;;;;;;;-3.06;100.00;100377.69;5038164;28;20479;-70
2022/12/10 02:31:04;;;;;;;51.75;18.05;;;;;;;-2.93;100.00;100374.41;5045598;28;20409;-72
2022/12/10 02:33:33;;;;;;;48.95;19.02;;;;;;;-2.99;100.00;100370.38;5035879;28;20025;-70
2022/12/10 02:36:00;;;;;;;54.22;19.75;;;;;;;-2.95;100.00;100378.88;5053403;28;20167;-71
2022/12/10 02:38:29;;;;;;;50.13;17.15;;;;;;;-3.01;100.00;100385.28;5040444;28;20022;-71
2022/12/10 02:41:04;;;;;;;57.13;20.05;;;;;;;-3.08;100.00;100378.72;5032085;28;20504;-72
2022/12/10 02:43:32;;;;;;;46.13;17.63;;;;;;;-3.07;100.00;100365.56;5039496;28;20445;-72
2022/12/10 02:46:00;;;;;;;53.08;19.20;;;;;;;-3.12;100.00;100380.63;5048415;28;20031;-70
2022/12/10 02:48:28;;;;;;;54.97;21.33;;;;;;;-3.17;100.00;100374.00;5051997;28;20029;-69
2022/12/10 02:50:53;;;;;;;;;;;;;;;-3.16;100.00;100376.53;5040063;28;20028;-73
2022/12/10 02:53:18;;;;;;;54.97;19.95;;;;;;;-3.17;100.00;100374.81;5037068;28;19940;-72
2022/12/10 02:56:05;;;;;;;53.55;21.40;;;;;;;-3.15;100.00;100374.75;5049998;28;20062;-72
2022/12/10 02:58:41;;;;;;;53.42;21.10;;;;;;;-3.13;100.00;100376.34;5015752;28;20065;-70
2022/12/10 03:01:34;;;;;;;63.35;23.15;;;;;;;-3.11;100.00;100387.56;5044722;28;20037;-70
2022/12/10 03:04:12;;;;;;;55.22;20.10;;;;;;;-3.08;100.00;100383.94;5019347;28;20421;-70
2022/12/10 03:06:52;;;;;;;55.25;21.20;;;;;;;-3.13;100.00;100383.34;5062050;28;20497;-69
2022/12/10 03:09:23;;;;;;;65.50;23.83;;;;;;;-3.10;100.00;100397.06;5058078;28;20071;-69
2022/12/10 03:11:59;;;;;;;59.88;21.48;;;;;;;-3.11;100.00;100390.19;5045218;28;20038;-71
2022/12/10 03:14:29;;;;;;;54.88;20.17;;;;;;;-3.20;100.00;100375.00;5042146;28;20148;-70
2022/12/10 03:16:57;;;;;;;58.88;22.38;;;;;;;-3.11;100.00;100387.56;5054710;28;20438;-71
2022/12/10 03:19:35;;;;;;;60.10;19.48;;;;;;;-3.16;100.00;100383.50;5052563;28;20082;-70
2022/12/10 03:22:04;;;;;;;57.35;20.75;;;;;;;-3.12;100.00;100385.03;5052653;28;20497;-70
2022/12/10 03:24:30;;;;;;;55.20;20.30;;;;;;;-3.05;100.00;100388.97;5052400;28;20025;-70
2022/12/10 03:26:57;;;;;;;60.17;22.50;;;;;;;-3.13;100.00;100383.34;5054601;28;20043;-70
2022/12/10 03:29:48;;;;;;;59.60;21.00;;;;;;;-3.09;100.00;100385.72;5019575;28;20032;-70
2022/12/10 03:32:15;;;;;;;58.97;20.70;;;;;;;-3.05;100.00;100392.44;5051189;28;20037;-70
2022/12/10 03:34:42;;;;;;;59.63;20.75;;;;;;;-3.14;100.00;100387.72;5034581;28;20029;-69
2022/12/10 03:37:09;;;;;;;53.58;20.48;;;;;;;-3.13;100.00;100389.41;5052939;28;20482;-70
2022/12/10 03:39:34;;;;;;;56.78;20.10;;;;;;;-3.14;100.00;100392.09;5043580;28;20033;-72
2022/12/10 03:42:00;;;;;;;51.63;20.92;;;;;;;-3.12;100.00;100396.31;5046435;28;20038;-72
2022/12/10 03:44:34;;;;;;;52.17;19.73;;;;;;;-2.97;100.00;100408.53;5019004;28;20120;-71
2022/12/10 03:47:01;;;;;;;55.37;20.37;;;;;;;-2.98;100.00;100408.63;5047114;28;20040;-72
2022/12/10 03:49:27;;;;;;;48.50;18.35;;;;;;;-2.95;100.00;100407.59;5058698;28;20025;-71
2022/12/10 03:51:52;;;;;;;51.40;20.00;;;;;;;-2.88;100.00;100406.34;5062352;28;20051;-69
2022/12/10 03:54:18;;;;;;;46.53;17.17;;;;;;;-2.82;100.00;100400.78;5030959;28;20029;-72
2022/12/10 03:56:43;;;;;;;40.42;15.75;;;;;;;-2.88;100.00;100406.34;5052846;28;20032;-71
2022/12/10 03:59:09;;;;;;;45.00;18.00;;;;;;;-2.87;100.00;100402.81;5020858;28;20053;-72
2022/12/10 04:01:34;;;;;;;47.65;18.83;;;;;;;-2.92;100.00;100399.63;5049465;28;20037;-73
2022/12/10 04:03:59;;;;;;;49.83;19.15;;;;;;;-2.96;100.00;100404.16;5053374;28;20025;-71
2022/12/10 04:06:25;;;;;;;48.28;18.35;;;;;;;-2.86;100.00;100407.94;5014262;28;20071;-71
2022/12/10 04:08:52;;;;;;;48.47;17.75;;;;;;;-2.83;100.00;100402.56;5053332;28;20085;-72
2022/12/10 04:11:18;;;;;;;43.42;17.35;;;;;;;-2.83;100.00;100401.72;5013931;28;20041;-70
2022/12/10 04:16:30;;;;;;;39.58;15.63;;;;;;;-2.81;100.00;100395.47;5051600;28;20045;-72
2022/12/10 04:19:04;;;;;;;41.95;17.15;;;;;;;-2.77;100.00;100390.91;5036000;28;20035;-72
2022/12/10 04:27:08;;;;;;;42.22;15.40;;;;;;;-2.75;100.00;100381.22;5065610;28;20494;-72
2022/12/10 04:29:33;;;;;;;35.20;15.32;;;;;;;-2.79;100.00;100377.09;5052122;28;20036;-72
2022/12/10 04:31:59;;;;;;;42.35;17.40;;;;;;;-2.80;100.00;100371.03;5059991;28;20039;-72
2022/12/10 04:34:24;;;;;;;29.77;13.00;;;;;;;-2.88;100.00;100367.16;5037453;28;20037;-71
2022/12/10 04:36:51;;;;;;;30.45;12.18;;;;;;;-2.84;100.00;100358.22;5052604;28;20112;-71
2022/12/10 04:39:17;;;;;;;31.13;11.82;;;;;;;-2.74;100.00;100356.75;5029962;28;20076;-70
2022/12/10 04:41:45;;;;;;;28.42;13.00;;;;;;;-2.84;100.00;100343.38;5033762;28;20025;-68
2022/12/10 04:44:11;;;;;;;23.98;10.27;;;;;;;-2.80;100.00;100344.06;5055486;28;20028;-71
2022/12/10 04:46:36;;;;;;;30.60;12.52;;;;;;;-2.79;100.00;100337.88;5069225;28;20039;-72
2022/12/10 04:49:04;;;;;;;25.83;11.77;;;;;;;-2.88;100.00;100327.97;5051849;28;20039;-69
2022/12/10 04:51:30;;;;;;;30.25;12.75;;;;;;;-2.88;100.00;100330.56;5057511;28;20062;-73
2022/12/10 04:53:56;;;;;;;28.73;12.20;;;;;;;-2.66;100.00;100333.66;5062440;28;20116;-73
2022/12/10 04:56:21;;;;;;;29.75;12.15;;;;;;;-2.67;100.00;100329.38;5034742;28;20037;-73
2022/12/10 04:58:47;;;;;;;33.15;14.65;;;;;;;-2.67;100.00;100326.75;5035418;28;20037;-70
2022/12/10 05:01:13;;;;;;;;;;;;;;;-2.61;100.00;100329.00;5030038;28;20495;-72
2022/12/10 05:03:39;;;;;;;29.73;12.70;;;;;;;-2.57;100.00;100324.44;5071773;28;19937;-72
2022/12/10 05:06:06;;;;;;;;;;;;;;;-2.74;100.00;100327.19;5044196;28;20021;-73
2022/12/10 05:08:31;;;;;;;30.83;14.13;;;;;;;-2.79;100.00;100320.47;5026889;28;19951;-71
2022/12/10 05:11:02;;;;;;;31.60;12.68;;;;;;;-2.80;100.00;100325.75;5051737;28;20583;-70
2022/12/10 05:13:27;;;;;;;30.00;13.55;;;;;;;-2.67;100.00;100333.72;5051073;28;20055;-70
2022/12/10 05:15:52;;;;;;;32.58;14.40;;;;;;;-2.75;100.00;100323.72;5059886;28;20035;-72
2022/12/10 05:18:18;;;;;;;31.73;13.10;;;;;;;-2.79;100.00;100324.81;5055937;28;20028;-73
2022/12/10 05:20:43;;;;;;;26.17;11.93;;;;;;;-2.76;100.00;100329.91;5054939;28;20021;-73
2022/12/10 05:25:58;;;;;;;29.23;13.43;;;;;;;-2.82;100.00;100325.00;5051847;28;20043;-73
2022/12/10 05:28:24;;;;;;;33.22;14.35;;;;;;;-2.89;100.00;100321.06;5029353;28;20052;-72
2022/12/10 05:30:49;;;;;;;31.50;12.95;;;;;;;-2.90;100.00;100322.84;5033795;28;20025;-72
2022/12/10 05:33:15;;;;;;;29.15;12.85;;;;;;;-2.92;100.00;100323.84;5057669;28;20041;-73
2022/12/10 05:35:40;;;;;;;27.33;12.20;;;;;;;-2.86;100.00;100328.72;5059667;28;20033;-73
2022/12/10 05:38:06;;;;;;;28.92;10.73;;;;;;;-3.00;100.00;100314.69;5019796;28;20057;-71
2022/12/10 05:40:35;;;;;;;31.38;12.20;;;;;;;-2.93;100.00;100316.94;5046181;28;20707;-72
2022/12/10 05:43:00;;;;;;;25.55;10.50;;;;;;;-2.82;100.00;100325.00;5058794;28;20513;-71
2022/12/10 05:45:26;;;;;;;28.50;12.18;;;;;;;-2.77;100.00;100320.34;5029114;28;20037;-72
2022/12/10 05:47:51;;;;;;;28.30;11.18;;;;;;;-2.92;100.00;100303.78;5053843;28;20042;-73
2022/12/10 05:50:16;;;;;;;24.20;12.25;;;;;;;-3.02;100.00;100311.31;5012810;28;20149;-71
2022/12/10 05:52:42;;;;;;;26.83;12.48;;;;;;;-3.02;100.00;100316.53;5032473;28;20040;-70
2022/12/10 05:55:08;;;;;;;21.92;10.43;;;;;;;-2.84;100.00;100324.25;5032694;28;20029;-69
2022/12/10 05:57:33;;;;;;;28.05;12.07;;;;;;;-3.01;100.00;100320.81;5032786;28;20037;-73
2022/12/10 05:59:58;;;;;;;26.52;11.65;;;;;;;-3.01;100.00;100317.38;5051907;28;20028;-73
2022/12/10 06:02:24;;;;;;;27.25;12.30;;;;;;;-2.91;100.00;100325.53;5058665;28;20044;-73
2022/12/10 06:04:49;;;;;;;;;;;;;;;-2.78;100.00;100323.91;5056328;28;20102;-73
2022/12/10 06:07:14;;;;;;;26.97;11.20;;;;;;;-2.82;100.00;100325.84;5032868;28;20010;-73
2022/12/10 06:09:39;;;;;;;30.42;11.82;;;;;;;-2.76;100.00;100327.28;5036018;28;20055;-72
2022/12/10 06:12:05;;;;;;;28.00;11.90;;;;;;;-2.72;100.00;100325.31;5016219;28;20133;-72
2022/12/10 06:14:31;;;;;;;27.90;13.30;;;;;;;-2.89;100.00;100315.84;5057715;28;20031;-71
2022/12/10 06:16:56;;;;;;;29.08;13.70;;;;;;;-2.84;100.00;100319.03;5068011;28;20036;-73
2022/12/10 06:19:21;;;;;;;29.88;13.18;;;;;;;-2.80;100.00;100315.31;5039830;28;20131;-71
2022/12/10 06:21:47;;;;;;;27.70;12.05;;;;;;;-2.78;100.00;100324.75;5036945;28;20056;-71
2022/12/10 06:24:12;;;;;;;33.20;13.75;;;;;;;-2.72;100.00;100322.72;5033194;28;20029;-70
2022/12/10 06:26:37;;;;;;;30.08;12.38;;;;;;;-2.71;100.00;100327.84;5022812;28;20503;-71
2022/12/10 06:29:04;;;;;;;29.52;13.55;;;;;;;-2.69;100.00;100322.53;5047298;28;20160;-73
2022/12/10 06:31:30;;;;;;;32.60;12.93;;;;;;;-2.63;100.00;100324.78;5032313;28;20037;-72
2022/12/10 06:33:55;;;;;;;35.13;14.18;;;;;;;-2.60;100.00;100317.63;5055996;28;20028;-73
2022/12/10 06:36:21;;;;;;;32.63;14.70;;;;;;;-2.83;100.00;100315.50;5060780;28;20033;-73
2022/12/10 06:38:47;;;;;;;30.00;13.18;;;;;;;-2.80;100.00;100315.31;5056058;28;20098;-73
2022/12/10 06:41:14;;;;;;;31.15;14.45;;;;;;;-2.67;100.00;100328.50;5038511;28;20030;-72
2022/12/10 06:43:40;;;;;;;35.78;13.20;;;;;;;-2.78;100.00;100319.53;5038140;28;20079;-71
2022/12/10 06:46:10;;;;;;;31.33;13.02;;;;;;;-2.62;100.00;100337.78;5053466;28;20115;-73
2022/12/10 06:48:36;;;;;;;29.48;13.75;;;;;;;-2.66;100.00;100327.59;5041150;28;20056;-73
2022/12/10 06:51:02;;;;;;;30.25;13.70;;;;;;;-2.55;100.00;100328.66;5061203;28;20801;-73
2022/12/10 06:53:29;;;;;;;30.27;13.80;;;;;;;-2.60;100.00;100330.69;5035649;28;20041;-72
2022/12/10 06:55:58;;;;;;;34.00;13.82;;;;;;;-2.93;100.00;100320.38;5071121;28;20020;-72
2022/12/10 06:58:23;;;;;;;30.52;14.45;;;;;;;-3.04;100.00;100320.16;5042201;28;20116;-74
2022/12/10 07:00:49;;;;;;;31.35;13.60;;;;;;;-3.16;100.00;100323.44;5020438;28;20108;-72
2022/12/10 07:03:14;;;;;;;31.95;13.82;;;;;;;-3.00;100.00;100338.19;5031683;28;20041;-71
2022/12/10 07:05:39;;;;;;;31.38;12.57;;;;;;;-3.06;100.00;100337.69;5034750;28;20025;-73
2022/12/10 07:08:04;;;;;;;30.55;13.20;;;;;;;-2.89;100.00;100349.81;5052427;28;20029;-71
2022/12/10 07:10:30;;;;;;;26.88;11.90;;;;;;;-2.87;100.00;100354.00;5059392;28;20025;-73
2022/12/10 07:12:56;;;;;;;28.67;13.75;;;;;;;-2.79;100.00;100354.44;5061696;28;20525;-73
2022/12/10 07:15:23;;;;;;;31.65;13.27;;;;;;;-2.94;100.00;100355.28;5038248;28;20029;-73
2022/12/10 07:17:49;;;;;;;31.27;13.65;;;;;;;-3.19;100.00;100348.78;5043790;28;20072;-73
2022/12/10 07:20:15;;;;;;;33.95;13.55;;;;;;;-3.17;100.00;100358.31;5067050;28;20477;-71
2022/12/10 07:22:40;;;;;;;38.10;13.45;;;;;;;-3.30;100.00;100355.53;5054760;28;20029;-73
2022/12/10 07:25:06;;;;;;;30.85;12.60;;;;;;;-3.25;100.00;100371.81;5038151;28;20037;-73
2022/12/10 07:27:31;;;;;;;33.22;14.23;;;;;;;-3.16;100.00;100384.38;5048989;28;20047;-72
2022/12/10 07:29:57;;;;;;;37.13;15.35;;;;;;;-3.18;100.00;100386.22;5033221;28;20447;-71
2022/12/10 07:32:22;;;;;;;43.15;19.70;;;;;;;-3.12;100.00;100396.31;5060151;28;20251;-73
2022/12/10 07:34:48;;;;;;;72.30;32.33;;;;;;;-3.26;100.00;100393.59;5043937;28;20029;-73
2022/12/10 07:37:13;;;;;;;46.65;21.30;;;;;;;-3.24;100.00;100400.44;5048883;28;20148;-73
2022/12/10 07:39:38;;;;;;;43.92;19.52;;;;;;;-3.23;100.00;100409.09;5058515;28;20029;-73
2022/12/10 07:42:04;;;;;;;37.97;17.63;;;;;;;-3.11;100.00;100418.06;5044732;28;20095;-73
2022/12/10 07:44:29;;;;;;;34.33;15.38;;;;;;;-3.08;100.00;100429.16;5041698;28;20025;-73
2022/12/10 07:46:55;;;;;;;29.00;13.23;;;;;;;-3.10;100.00;100423.19;5053461;28;20064;-73
2022/12/10 07:49:21;;;;;;;32.65;13.98;;;;;;;-3.02;100.00;100430.59;5036636;28;20028;-73
2022/12/10 07:51:50;;;;;;;32.10;13.07;;;;;;;-3.15;100.00;100427.81;5068859;28;20071;-71
2022/12/10 07:54:17;;;;;;;33.33;15.48;;;;;;;-3.26;100.00;100424.94;5036173;28;20033;-71
2022/12/10 07:56:43;;;;;;;33.25;14.60;;;;;;;-3.28;100.00;100426.78;5052013;28;20037;-70
2022/12/10 07:59:08;;;;;;;29.77;12.63;;;;;;;-3.23;100.00;100436.06;5051684;28;20029;-73
2022/12/10 08:01:33;;;;;;;30.73;13.45;;;;;;;-3.34;100.00;100443.63;5047650;28;20509;-73
2022/12/10 08:03:59;;;;;;;32.35;13.00;;;;;;;-3.25;100.00;100437.91;5048748;28;20024;-72
2022/12/10 08:06:26;;;;;;;;;;;;;;;-3.19;100.00;100453.25;5035037;28;20037;-71
2022/12/10 08:08:52;;;;;;;35.60;13.40;;;;;;;-3.12;100.00;100451.16;5036920;28;20678;-73
2022/12/10 08:11:19;;;;;;;33.72;13.68;;;;;;;-3.01;100.00;100459.25;5042856;28;20037;-70
2022/12/10 08:13:45;;;;;;;31.92;13.73;;;;;;;-3.04;100.00;100455.97;5057224;28;20632;-73
2022/12/10 08:16:17;;;;;;;;;;;;;;;-3.23;100.00;100441.28;5031450;28;20038;-73
2022/12/10 08:18:44;;;;;;;37.13;14.93;;;;;;;-3.23;100.00;100443.91;5059089;28;20096;-72
2022/12/10 08:21:12;;;;;;;29.23;12.10;;;;;;;-3.26;100.00;100453.66;5039342;28;20056;-73
2022/12/10 08:23:37;;;;;;;30.98;13.27;;;;;;;-3.37;100.00;100451.63;5032403;28;20041;-69
2022/12/10 08:26:09;;;;;;;29.92;12.25;;;;;;;-3.35;100.00;100460.19;5057963;28;20052;-71
2022/12/10 08:28:35;;;;;;;25.15;11.82;;;;;;;-3.24;100.00;100470.09;5031350;28;20057;-73
2022/12/10 08:31:01;;;;;;;30.45;12.48;;;;;;;-3.13;100.00;100477.38;5058896;28;20790;-72
2022/12/10 08:33:26;;;;;;;22.48;9.93;;;;;;;-3.33;100.00;100470.56;5065499;28;20064;-74
2022/12/10 08:35:51;;;;;;;18.70;8.85;;;;;;;-3.17;100.00;100461.00;5055044;28;20040;-72
2022/12/10 08:38:17;;;;;;;22.90;10.80;;;;;;;-3.04;100.00;100453.38;5035442;28;20037;-70
2022/12/10 08:40:42;;;;;;;24.58;11.40;;;;;;;-2.97;100.00;100460.78;5052200;28;20143;-72
2022/12/10 08:43:08;;;;;;;25.95;10.80;;;;;;;-2.85;100.00;100459.28;5057643;28;20032;-73
2022/12/10 08:45:34;;;;;;;24.35;11.68;;;;;;;-2.84;100.00;100450.50;5052041;28;20385;-72
2022/12/10 08:48:01;;;;;;;24.90;10.43;;;;;;;-2.85;100.00;100448.81;5045792;28;20032;-72
2022/12/10 08:50:27;;;;;;;17.98;9.18;;;;;;;-2.95;100.00;100428.50;5013483;28;20117;-73
2022/12/10 08:52:52;;;;;;;;;;;;;;;-2.91;100.00;100423.03;5049265;28;20071;-71
2022/12/10 08:55:17;;;;;;;17.98;8.38;;;;;;;-3.05;100.00;100402.88;5051278;28;20006;-71
2022/12/10 08:57:43;;;;;;;23.20;8.85;;;;;;;-2.99;100.00;100418.22;5017433;28;20506;-73
2022/12/10 09:00:09;;;;;;;21.65;10.23;;;;;;;-3.25;100.00;100401.38;5034010;28;20086;-73
2022/12/10 09:02:34;;;;;;;;;;;;;;;-3.34;100.00;100401.03;5059131;28;20029;-72
2022/12/10 09:05:00;;;;;;;17.08;8.25;;;;;;;-3.14;100.00;100410.38;5052404;28;20432;-73
2022/12/10 09:07:26;;;;;;;23.38;9.13;;;;;;;-3.19;100.00;100401.00;5029781;28;20037;-72
2022/12/10 09:09:52;;;;;;;21.65;10.35;;;;;;;-3.04;100.00;100415.03;5054308;28;20874;-70
2022/12/10 09:12:18;;;;;;;22.23;10.30;;;;;;;-3.00;100.00;100410.47;5034816;28;20051;-72
2022/12/10 09:14:43;;;;;;;22.33;9.45;;;;;;;-2.90;100.00;100416.03;5052095;28;20033;-73
2022/12/10 09:17:09;;;;;;;21.23;8.63;;;;;;;-2.88;100.00;100425.50;5036055;28;20053;-73
2022/12/10 09:19:34;;;;;;;21.17;9.45;;;;;;;-2.72;100.00;100433.28;5047972;28;20079;-72
2022/12/10 09:22:00;;;;;;;21.95;10.00;;;;;;;-2.61;100.00;100440.56;5046933;28;20025;-73
2022/12/10 09:24:26;;;;;;;23.13;9.90;;;;;;;-2.77;100.00;100422.25;5023940;28;20474;-74
2022/12/10 09:26:51;;;;;;;19.02;7.75;;;;;;;-2.81;100.00;100415.50;5035248;28;20857;-73
2022/12/10 09:29:16;;;;;;;22.50;9.57;;;;;;;-3.02;100.00;100397.50;5039478;28;20111;-70
2022/12/10 09:31:42;;;;;;;22.48;9.35;;;;;;;-2.90;100.00;100390.75;5059128;28;20079;-69
2022/12/10 09:34:08;;;;;;;19.80;9.32;;;;;;;-2.80;100.00;100404.16;5036094;28;20080;-73
2022/12/10 09:36:34;;;;;;;19.08;9.63;;;;;;;-2.70;100.00;100413.16;5039497;28;20036;-73
2022/12/10 09:38:59;;;;;;;21.65;9.35;;;;;;;-2.91;100.00;100383.00;5047586;28;20024;-71
2022/12/10 09:41:52;;;;;;;18.13;9.20;;;;;;;-2.83;100.00;100399.09;5033050;28;20079;-71
2022/12/10 09:44:36;;;;;;;26.63;9.40;;;;;;;-2.75;100.00;100404.72;5045069;28;20414;-70
2022/12/10 09:47:05;;;;;;;17.85;7.95;;;;;;;-2.67;100.00;100406.91;5032347;28;20048;-71
2022/12/10 09:50:01;;;;;;;19.67;8.88;;;;;;;-2.77;100.00;100393.53;5050388;28;20119;-71
2022/12/10 09:52:36;;;;;;;25.05;10.23;;;;;;;-2.69;100.00;100393.94;5032306;28;20053;-70
2022/12/10 09:55:09;;;;;;;19.73;9.35;;;;;;;-2.56;100.00;100397.53;5050371;28;20094;-70
2022/12/10 09:57:41;;;;;;;19.00;8.45;;;;;;;-2.56;100.00;100388.84;5030916;28;20375;-72
2022/12/10 10:00:28;;;;;;;16.95;7.75;;;;;;;-2.45;100.00;100378.63;5028812;28;20046;-71
2022/12/10 10:02:58;;;;;;;21.05;9.27;;;;;;;-2.51;100.00;100359.84;5052254;28;20032;-72
2022/12/10 10:05:39;;;;;;;19.85;9.15;;;;;;;-2.51;100.00;100344.16;5050089;28;20036;-71
2022/12/10 10:08:11;;;;;;;21.83;9.80;;;;;;;-2.45;100.00;100346.41;5032266;28;20033;-71
2022/12/10 10:10:39;;;;;;;24.25;10.73;;;;;;;-2.50;100.00;100348.47;5051273;28;20170;-70
2022/12/10 10:13:08;;;;;;;15.68;8.13;;;;;;;-2.43;100.00;100349.78;5050260;28;20033;-71
2022/12/10 10:15:40;;;;;;;19.55;8.23;;;;;;;-2.51;100.00;100333.69;5050525;28;20486;-72
2022/12/10 10:18:17;;;;;;;18.63;10.45;;;;;;;-2.55;100.00;100323.44;5049998;28;20495;-71
2022/12/10 10:20:43;;;;;;;18.10;8.57;;;;;;;-2.49;100.00;100324.81;5034735;28;20519;-71
2022/12/10 10:23:13;;;;;;;17.38;7.95;;;;;;;-2.40;100.00;100316.44;5030046;28;20414;-70
2022/12/10 10:25:38;;;;;;;17.40;8.93;;;;;;;-2.40;100.00;100308.59;5066247;28;20036;-71
2022/12/10 10:28:04;;;;;;;20.73;9.13;;;;;;;-2.42;100.00;100296.56;5067989;28;20064;-71
2022/12/10 10:30:29;;;;;;;16.83;9.07;;;;;;;-2.34;100.00;100302.19;5053696;28;20037;-71
2022/12/10 10:32:57;;;;;;;22.52;11.05;;;;;;;-2.44;100.00;100290.56;5059483;28;20111;-72
2022/12/10 10:35:32;;;;;;;16.77;8.02;;;;;;;-2.40;100.00;100273.78;5049769;28;20094;-70
2022/12/10 10:38:05;;;;;;;17.13;6.57;;;;;;;-2.46;100.00;100259.31;5050985;28;20040;-71
2022/12/10 10:40:43;;;;;;;22.88;10.70;;;;;;;-2.83;100.00;100229.28;5012111;28;20788;-71
2022/12/10 10:43:32;;;;;;;24.30;10.48;;;;;;;-2.81;100.00;100245.69;5029013;28;20037;-72
2022/12/10 10:46:05;;;;;;;22.05;9.52;;;;;;;-2.58;100.00;100281.75;5029725;28;20447;-71
2022/12/10 10:48:30;;;;;;;19.75;8.95;;;;;;;-2.57;100.00;100267.78;5047631;28;20490;-72
2022/12/10 10:51:18;;;;;;;28.70;11.23;;;;;;;-2.73;100.00;100237.41;5062840;28;20089;-72
2022/12/10 10:53:54;;;;;;;25.00;11.07;;;;;;;-2.68;100.00;100254.50;5056205;28;20116;-72
2022/12/10 10:56:25;;;;;;;19.60;8.95;;;;;;;-2.62;100.00;100254.16;5053436;28;20032;-71
2022/12/10 10:58:55;;;;;;;28.75;15.30;;;;;;;-2.61;100.00;100261.03;5056024;28;20410;-72
2022/12/10 11:01:24;;;;;;;22.98;10.05;;;;;;;-2.46;100.00;100274.13;5053478;28;20112;-72
2022/12/10 11:03:55;;;;;;;18.25;8.95;;;;;;;-2.34;100.00;100276.03;5056055;28;20033;-72
2022/12/10 11:06:21;;;;;;;53.83;25.67;;;;;;;-2.64;100.00;100234.25;5032205;28;20077;-72
2022/12/10 11:08:48;;;;;;;22.33;9.55;;;;;;;-2.62;100.00;100248.91;5054491;28;20029;-71
2022/12/10 11:11:30;;;;;;;27.52;11.93;;;;;;;-2.39;100.00;100259.75;5053324;28;20036;-71
2022/12/10 11:14:25;;;;;;;22.55;12.55;;;;;;;-2.26;100.00;100270.34;5053529;28;20393;-71
2022/12/10 11:17:16;;;;;;;18.52;9.50;;;;;;;-2.28;100.00;100259.13;5038652;28;20401;-71
2022/12/10 11:19:44;;;;;;;18.15;8.15;;;;;;;-2.29;100.00;100228.72;5057513;28;20041;-70
2022/12/10 11:22:30;;;;;;;17.55;8.45;;;;;;;-2.11;100.00;100227.56;5053049;28;20044;-72
2022/12/10 11:24:57;;;;;;;23.27;9.65;;;;;;;-2.23;100.00;100182.06;5055964;28;20071;-71